Weather at Blue Grass Airport

Public forecast

Using degrees Fahrenheit for public forecast. Weather courtesy of forecast.io.

Current aviation weather report (METAR) for Blue Grass Airport

Report is more than 6 hours old.

2022/11/14 14:54 (retrieved 2 years ago)

KLEX 141454Z 08012KT 10SM CLR 03/M03 A3035 RMK AO2 SLP284 T00331033 50003

Aviation forecast (TAF) for Blue Grass Airport

Forecast is more than 12 hours old.

2023/02/22 18:36 (retrieved 1 year ago)

TAF KLEX 221734Z 2218/2318 21022G31KT P6SM BKN060 FM230000 20025G33KT P6SM BKN060 WS020/21051KT FM230200 21026G33KT P6SM -SHRA OVC060 FM230900 24011KT P6SM -SHRA SCT120 FM231100 21010KT P6SM SKC FM231500 23018G24KT P6SM SKC